createdAt,value
2023-01-20T00:02:54.164Z,89.33
2023-01-20T00:05:56.502Z,89.09
2023-01-20T00:09:02.108Z,89.39
2023-01-20T00:12:07.057Z,88.88
2023-01-20T00:15:11.348Z,88.12
2023-01-20T00:18:15.472Z,88.03
2023-01-20T00:21:18.144Z,88.42
2023-01-20T00:24:20.382Z,87.54
2023-01-20T00:27:22.378Z,87.05
2023-01-20T00:30:25.221Z,87.65
2023-01-20T00:33:30.430Z,86.99
2023-01-20T00:36:36.663Z,85.79
2023-01-20T00:39:41.291Z,86.54
2023-01-20T00:42:43.542Z,86.18
2023-01-20T00:45:45.676Z,85.66
2023-01-20T00:48:47.939Z,87.62
2023-01-20T00:51:51.223Z,87.41
2023-01-20T00:54:55.222Z,88.06
2023-01-20T00:57:57.990Z,88.28
2023-01-20T01:01:00.699Z,87.37
2023-01-20T01:04:04.284Z,86.41
2023-01-20T01:07:06.920Z,87.84
2023-01-20T01:10:10.733Z,86.82
2023-01-20T01:13:13.740Z,86.31
2023-01-20T01:16:16.662Z,85.88
2023-01-20T01:19:20.393Z,84.84
2023-01-20T01:22:22.782Z,84.55
2023-01-20T01:25:24.959Z,84.13
2023-01-20T01:28:27.259Z,85.03
2023-01-20T01:31:30.380Z,85.03
2023-01-20T01:34:32.678Z,84.15
2023-01-20T01:37:36.264Z,85.36
2023-01-20T01:40:38.409Z,85.99
2023-01-20T01:44:02.128Z,86.71
2023-01-20T01:47:06.712Z,86.16
2023-01-20T01:50:14.530Z,86.02
2023-01-20T01:53:18.743Z,85.94
2023-01-20T01:56:23.059Z,86.03
2023-01-20T01:59:25.353Z,84.69
2023-01-20T02:02:28.326Z,84.09
2023-01-20T02:05:34.228Z,84.05
2023-01-20T02:08:37.281Z,82.79
2023-01-20T02:11:45.549Z,83.86
2023-01-20T02:14:55.501Z,82.84
2023-01-20T02:18:30.028Z,83.37
2023-01-20T02:22:17.610Z,83.09
2023-01-20T02:25:44.187Z,84.89
2023-01-20T02:28:55.170Z,84.20
2023-01-20T02:32:11.902Z,84.24
2023-01-20T02:35:43.039Z,84.82
2023-01-20T02:39:01.268Z,84.84
2023-01-20T02:42:16.075Z,84.00
2023-01-20T02:45:32.782Z,84.17
2023-01-20T02:48:44.512Z,83.71
2023-01-20T02:52:10.995Z,82.79
2023-01-20T02:55:58.049Z,82.42
2023-01-20T02:59:05.742Z,82.18
2023-01-20T03:02:13.996Z,82.97
2023-01-20T03:05:25.865Z,82.54
2023-01-20T03:08:31.942Z,81.83
2023-01-20T03:11:40.554Z,83.05
2023-01-20T03:14:42.939Z,83.75
2023-01-20T03:17:46.261Z,83.44
2023-01-20T03:20:48.420Z,84.20
2023-01-20T03:23:55.979Z,83.64
2023-01-20T03:27:00.541Z,84.12
2023-01-20T03:30:02.776Z,83.18
2023-01-20T03:33:07.380Z,83.06
2023-01-20T03:36:10.261Z,83.38
2023-01-20T03:39:14.136Z,81.86
2023-01-20T03:42:29.069Z,82.19
2023-01-20T03:45:56.746Z,82.14
2023-01-20T03:49:11.990Z,81.67
2023-01-20T03:52:46.990Z,81.02
2023-01-20T03:56:02.623Z,81.05
2023-01-20T03:59:07.767Z,82.30
2023-01-20T04:02:12.624Z,81.89
2023-01-20T04:05:14.993Z,82.87
2023-01-20T04:08:22.841Z,83.17
2023-01-20T04:11:27.326Z,82.22
2023-01-20T04:14:29.382Z,82.33
2023-01-20T04:17:31.908Z,82.29
2023-01-20T04:20:34.273Z,81.87
2023-01-20T04:23:43.424Z,81.59
2023-01-20T04:26:45.638Z,81.50
2023-01-20T04:29:50.039Z,80.55
2023-01-20T04:32:52.178Z,80.25
2023-01-20T04:35:54.557Z,80.12
2023-01-20T04:38:57.285Z,79.88
2023-01-20T04:41:59.384Z,79.95
2023-01-20T04:45:01.450Z,80.13
2023-01-20T04:48:09.158Z,80.01
2023-01-20T04:51:12.892Z,80.66
2023-01-20T04:54:15.044Z,80.71
2023-01-20T04:57:17.198Z,81.01
2023-01-20T05:00:20.885Z,80.47
2023-01-20T05:03:23.119Z,81.02
2023-01-20T05:06:27.171Z,80.91
2023-01-20T05:09:30.226Z,80.18
2023-01-20T05:12:33.279Z,80.62
2023-01-20T05:15:39.511Z,79.44
2023-01-20T05:18:41.706Z,79.57
2023-01-20T05:21:46.104Z,84.08
2023-01-20T05:24:48.292Z,86.25
2023-01-20T05:27:50.686Z,90.86
2023-01-20T05:30:54.221Z,97.01
2023-01-20T05:33:58.999Z,99.76
2023-01-20T05:37:01.978Z,100.00
2023-01-20T05:40:05.090Z,100.00
2023-01-20T05:43:07.285Z,99.00
2023-01-20T05:46:12.253Z,99.29
2023-01-20T05:49:15.694Z,97.38
2023-01-20T05:52:17.625Z,97.48
2023-01-20T05:55:20.434Z,95.84
2023-01-20T05:58:23.052Z,94.79
2023-01-20T06:01:25.322Z,93.88
2023-01-20T06:04:29.825Z,93.81
2023-01-20T06:07:34.358Z,92.12
2023-01-20T06:10:36.527Z,92.73
2023-01-20T06:13:39.875Z,91.10
2023-01-20T06:16:42.987Z,90.27
2023-01-20T06:19:48.534Z,90.35
2023-01-20T06:22:55.504Z,90.09
2023-01-20T06:26:06.644Z,89.52
2023-01-20T06:29:09.881Z,89.26
2023-01-20T06:32:11.914Z,88.42
2023-01-20T06:35:14.531Z,87.21
2023-01-20T06:38:16.757Z,87.69
2023-01-20T06:41:21.311Z,85.28
2023-01-20T06:44:23.466Z,84.17
2023-01-20T06:47:25.519Z,82.88
2023-01-20T06:50:27.603Z,83.06
2023-01-20T06:53:31.159Z,87.70
2023-01-20T06:56:33.245Z,91.57
2023-01-20T06:59:35.565Z,91.44
2023-01-20T07:02:37.989Z,91.71
2023-01-20T07:05:40.135Z,91.85
2023-01-20T07:08:44.908Z,94.46
2023-01-20T07:11:48.004Z,93.91
2023-01-20T07:14:50.205Z,93.39
2023-01-20T07:17:52.387Z,91.44
2023-01-20T07:20:56.317Z,89.52
2023-01-20T07:24:01.986Z,86.20
2023-01-20T07:27:04.236Z,83.51
2023-01-20T07:30:07.107Z,82.16
2023-01-20T07:33:09.174Z,79.96
2023-01-20T07:36:12.848Z,78.95
2023-01-20T07:39:15.716Z,78.37
2023-01-20T07:42:17.854Z,77.81
2023-01-20T07:45:19.988Z,77.66
2023-01-20T07:48:22.411Z,77.24
2023-01-20T07:51:24.611Z,76.99
2023-01-20T07:54:26.596Z,76.82
2023-01-20T07:57:30.383Z,76.78
2023-01-20T08:00:32.351Z,76.77
2023-01-20T08:03:35.314Z,76.99
2023-01-20T08:06:37.561Z,77.90
2023-01-20T08:09:42.015Z,78.17
2023-01-20T08:12:44.049Z,77.70
2023-01-20T08:15:46.074Z,77.37
2023-01-20T08:18:51.510Z,76.62
2023-01-20T08:21:53.638Z,76.71
2023-01-20T08:24:55.811Z,76.11
2023-01-20T08:27:58.102Z,76.09
2023-01-20T08:31:15.960Z,75.52
2023-01-20T08:34:19.153Z,75.85
2023-01-20T08:37:21.441Z,75.05
2023-01-20T08:40:23.546Z,75.10
2023-01-20T08:43:25.563Z,74.79
2023-01-20T08:46:28.503Z,74.53
2023-01-20T08:49:30.747Z,74.92
2023-01-20T08:52:33.255Z,74.97
2023-01-20T08:55:35.528Z,75.63
2023-01-20T08:58:38.358Z,75.43
2023-01-20T09:01:42.315Z,74.52
2023-01-20T09:04:44.520Z,74.83
2023-01-20T09:07:46.605Z,74.66
2023-01-20T09:10:48.620Z,74.25
2023-01-20T09:13:51.430Z,74.39
2023-01-20T09:16:53.756Z,73.91
2023-01-20T09:19:56.335Z,74.08
2023-01-20T09:23:03.175Z,74.14
2023-01-20T09:26:07.382Z,73.72
2023-01-20T09:29:14.744Z,73.94
2023-01-20T09:32:16.896Z,74.40
2023-01-20T09:35:19.320Z,73.72
2023-01-20T09:38:41.576Z,75.33
2023-01-20T09:42:06.862Z,75.66
2023-01-20T09:45:22.953Z,77.07
2023-01-20T09:49:02.638Z,76.80
2023-01-20T09:52:37.873Z,77.65
2023-01-20T09:55:49.554Z,77.64
2023-01-20T09:59:01.031Z,77.54
2023-01-20T10:02:12.411Z,77.37
2023-01-20T10:05:21.180Z,77.18
2023-01-20T10:09:04.945Z,76.58
2023-01-20T10:12:07.830Z,75.86
2023-01-20T10:15:36.830Z,75.76
2023-01-20T10:18:49.655Z,74.99
2023-01-20T10:22:02.900Z,74.92
2023-01-20T10:25:14.523Z,75.31
2023-01-20T10:28:27.310Z,75.43
2023-01-20T10:31:35.354Z,75.48
2023-01-20T10:34:58.156Z,74.76
2023-01-20T10:38:05.265Z,74.59
2023-01-20T10:41:19.611Z,73.95
2023-01-20T10:44:24.682Z,74.34
2023-01-20T10:47:47.952Z,72.77
2023-01-20T10:51:09.181Z,72.07
2023-01-20T10:54:36.340Z,70.56
2023-01-20T10:57:39.215Z,71.95
2023-01-20T11:00:42.475Z,66.07
2023-01-20T11:03:47.283Z,64.87
2023-01-20T11:06:55.750Z,65.69
2023-01-20T11:10:00.930Z,66.51
2023-01-20T11:13:04.268Z,66.42
2023-01-20T11:16:40.948Z,64.36
2023-01-20T11:19:48.037Z,64.54
2023-01-20T11:22:50.762Z,64.05
2023-01-20T11:25:57.699Z,63.80
2023-01-20T11:29:24.327Z,64.05
2023-01-20T11:32:40.158Z,62.52
2023-01-20T11:36:00.731Z,63.30
2023-01-20T11:39:08.742Z,62.07
2023-01-20T11:42:18.013Z,63.73
2023-01-20T11:45:24.756Z,63.18
2023-01-20T11:48:26.874Z,64.27
2023-01-20T11:51:28.954Z,63.71
2023-01-20T11:54:31.202Z,66.33
2023-01-20T11:57:33.509Z,67.71
2023-01-20T12:00:41.175Z,69.10
2023-01-20T12:03:56.526Z,71.39
2023-01-20T12:07:31.847Z,72.10
2023-01-20T12:10:37.414Z,72.90
2023-01-20T12:14:03.926Z,72.88
2023-01-20T12:17:21.161Z,74.65
2023-01-20T12:20:54.802Z,74.08
2023-01-20T12:24:09.663Z,74.85
2023-01-20T12:27:21.271Z,78.68
2023-01-20T12:30:52.122Z,82.89
2023-01-20T12:34:05.354Z,85.70
2023-01-20T12:37:38.134Z,88.29
2023-01-20T12:40:49.118Z,88.77
2023-01-20T12:44:13.666Z,90.06
2023-01-20T12:47:31.228Z,90.07
2023-01-20T12:51:14.362Z,90.55
2023-01-20T12:54:47.339Z,86.92
2023-01-20T12:58:21.237Z,77.78
2023-01-20T13:01:38.247Z,74.20
2023-01-20T13:04:49.220Z,68.58
2023-01-20T13:08:20.737Z,66.87
2023-01-20T13:11:59.525Z,65.39
2023-01-20T13:15:43.349Z,65.77
2023-01-20T13:18:54.697Z,64.08
2023-01-20T13:22:07.913Z,63.60
2023-01-20T13:25:15.551Z,63.58
2023-01-20T13:28:19.936Z,63.44
2023-01-20T13:31:42.305Z,60.53
2023-01-20T13:34:44.513Z,60.70
2023-01-20T13:37:57.808Z,58.09
2023-01-20T13:41:03.600Z,58.35
2023-01-20T13:44:45.939Z,58.06
2023-01-20T13:48:21.843Z,60.17
2023-01-20T13:51:26.834Z,63.68
2023-01-20T13:54:37.223Z,66.36
2023-01-20T13:57:39.361Z,67.30
2023-01-20T14:00:41.632Z,69.48
2023-01-20T14:03:44.160Z,69.69
2023-01-20T14:06:53.781Z,69.68
2023-01-20T14:10:02.174Z,69.71
2023-01-20T14:13:10.632Z,71.58
2023-01-20T14:16:26.499Z,71.93
2023-01-20T14:19:35.511Z,72.02
2023-01-20T14:22:37.745Z,71.71
2023-01-20T14:25:39.802Z,72.66
2023-01-20T14:28:46.097Z,73.38
2023-01-20T14:31:48.348Z,72.83
2023-01-20T14:34:52.407Z,74.21
2023-01-20T14:37:59.159Z,74.93
2023-01-20T14:41:01.469Z,74.90
2023-01-20T14:44:04.181Z,76.69
2023-01-20T14:47:07.855Z,77.13
2023-01-20T14:50:16.082Z,71.90
2023-01-20T14:53:22.229Z,68.26
2023-01-20T14:56:25.248Z,66.96
2023-01-20T14:59:28.098Z,66.87
2023-01-20T15:02:35.721Z,66.84
2023-01-20T15:05:42.113Z,67.10
2023-01-20T15:08:57.006Z,66.61
2023-01-20T15:16:39.761Z,66.29
2023-01-20T15:19:47.740Z,67.29
2023-01-20T15:22:51.191Z,68.36
2023-01-20T15:25:54.585Z,71.66
2023-01-20T15:29:01.453Z,74.34
2023-01-20T15:32:13.767Z,75.45
2023-01-20T15:44:14.526Z,86.37
2023-01-20T15:51:50.649Z,85.45
2023-01-20T15:54:53.568Z,86.19
2023-01-20T15:57:56.013Z,87.58
2023-01-20T16:01:01.088Z,88.36
2023-01-20T16:04:03.849Z,87.95
2023-01-20T16:07:07.829Z,88.62
2023-01-20T16:10:18.552Z,89.34
2023-01-20T16:13:20.991Z,89.78
2023-01-20T16:16:26.840Z,89.53
2023-01-20T16:19:31.208Z,89.04
2023-01-20T16:22:34.576Z,88.71
2023-01-20T16:25:37.807Z,88.84
2023-01-20T16:28:39.809Z,89.01
2023-01-20T16:31:42.243Z,89.12
2023-01-20T16:34:44.689Z,89.38
2023-01-20T16:37:48.026Z,89.43
2023-01-20T16:40:51.528Z,89.66
2023-01-20T16:47:17.532Z,89.32
2023-01-20T16:50:23.619Z,89.93
2023-01-20T16:53:25.726Z,89.58
2023-01-20T16:56:30.284Z,89.58
2023-01-20T16:59:32.551Z,89.24
2023-01-20T17:02:34.643Z,89.34
2023-01-20T17:05:39.518Z,91.98
2023-01-20T17:08:46.992Z,93.92
2023-01-20T17:11:49.303Z,94.60
2023-01-20T17:14:52.142Z,95.21
2023-01-20T17:18:01.180Z,94.58
2023-01-20T17:21:07.992Z,94.77
2023-01-20T17:24:13.940Z,95.32
2023-01-20T17:27:19.609Z,94.99
2023-01-20T17:30:23.408Z,93.36
2023-01-20T17:33:26.752Z,94.75
2023-01-20T17:36:35.314Z,94.56
2023-01-20T17:39:37.668Z,95.72
2023-01-20T17:42:40.042Z,96.09
2023-01-20T17:45:44.220Z,94.74
2023-01-20T17:48:46.996Z,94.60
2023-01-20T17:51:54.542Z,92.83
2023-01-20T17:54:58.300Z,91.90
2023-01-20T17:58:00.432Z,90.54
2023-01-20T18:01:13.820Z,90.13
2023-01-20T18:04:16.495Z,90.89
2023-01-20T18:07:18.677Z,90.66
2023-01-20T18:10:20.840Z,89.94
2023-01-20T18:13:23.252Z,89.12
2023-01-20T18:16:31.710Z,89.83
2023-01-20T18:19:33.786Z,87.39
2023-01-20T18:22:36.198Z,87.10
2023-01-20T18:25:38.393Z,86.57
2023-01-20T18:28:41.748Z,85.72
2023-01-20T18:31:47.036Z,86.35
2023-01-20T18:34:49.731Z,86.99
2023-01-20T18:37:52.812Z,85.74
2023-01-20T18:40:54.886Z,85.76
2023-01-20T18:43:57.693Z,86.45
2023-01-20T18:46:59.837Z,85.30
2023-01-20T18:50:02.041Z,86.10
2023-01-20T18:53:04.460Z,86.93
2023-01-20T18:56:10.658Z,86.32
2023-01-20T18:59:13.673Z,86.24
2023-01-20T19:02:18.942Z,87.97
2023-01-20T19:05:23.739Z,88.26
2023-01-20T19:08:25.924Z,87.07
2023-01-20T19:11:34.351Z,86.40
2023-01-20T19:14:40.616Z,89.11
2023-01-20T19:17:43.012Z,87.33
2023-01-20T19:20:45.234Z,87.20
2023-01-20T19:24:19.242Z,86.60
2023-01-20T19:27:24.105Z,86.70
2023-01-20T19:30:26.537Z,87.66
2023-01-20T19:33:30.254Z,86.86
2023-01-20T19:36:34.716Z,87.45
2023-01-20T19:39:36.843Z,87.38
2023-01-20T19:42:38.904Z,87.58
2023-01-20T19:45:45.848Z,87.02
2023-01-20T19:48:58.051Z,88.35
2023-01-20T19:52:00.875Z,88.50
2023-01-20T19:55:03.119Z,88.26
2023-01-20T19:58:06.429Z,94.63
2023-01-20T20:01:20.411Z,94.86
2023-01-20T20:04:24.297Z,95.47
2023-01-20T20:07:26.545Z,95.38
2023-01-20T20:10:29.699Z,95.23
2023-01-20T20:13:31.747Z,95.70
2023-01-20T20:16:35.794Z,95.25
2023-01-20T20:19:37.955Z,95.57
2023-01-20T20:22:41.379Z,95.21
2023-01-20T20:25:48.667Z,95.27
2023-01-20T20:28:53.576Z,95.04
2023-01-20T20:31:55.945Z,94.35
2023-01-20T20:34:59.799Z,94.48
2023-01-20T20:38:02.151Z,94.73
2023-01-20T20:41:08.108Z,95.60
2023-01-20T20:44:11.272Z,95.48
2023-01-20T20:47:13.494Z,95.37
2023-01-20T20:50:16.545Z,95.55
2023-01-20T20:53:19.025Z,96.25
2023-01-20T20:56:23.414Z,95.97
2023-01-20T20:59:27.391Z,95.53
2023-01-20T21:02:30.702Z,95.39
2023-01-20T21:05:34.064Z,94.61
2023-01-20T21:08:40.242Z,93.41
2023-01-20T21:11:43.753Z,92.53
2023-01-20T21:14:46.204Z,92.49
2023-01-20T21:17:50.665Z,92.17
2023-01-20T21:21:01.987Z,92.21
2023-01-20T21:24:05.079Z,91.83
2023-01-20T21:27:07.196Z,91.24
2023-01-20T21:30:10.716Z,92.44
2023-01-20T21:33:18.435Z,92.62
2023-01-20T21:36:21.616Z,92.06
2023-01-20T21:39:23.975Z,92.25
2023-01-20T21:42:27.637Z,91.79
2023-01-20T21:45:29.752Z,92.05
2023-01-20T21:48:50.769Z,91.57
2023-01-20T21:52:11.583Z,91.63
2023-01-20T21:55:19.080Z,91.24
2023-01-20T21:58:22.129Z,90.75
2023-01-20T22:01:24.671Z,90.05
2023-01-20T22:04:26.868Z,89.99
2023-01-20T22:07:29.065Z,90.09
2023-01-20T22:10:32.756Z,89.26
2023-01-20T22:13:36.192Z,88.95
2023-01-20T22:16:38.588Z,89.17
2023-01-20T22:19:40.872Z,89.59
2023-01-20T22:22:43.926Z,90.54
2023-01-20T22:25:47.154Z,90.14
2023-01-20T22:28:49.304Z,89.64
2023-01-20T22:31:54.283Z,89.23
2023-01-20T22:34:56.405Z,89.13
2023-01-20T22:38:01.230Z,88.83
2023-01-20T22:41:05.571Z,88.16
2023-01-20T22:44:08.761Z,87.07
2023-01-20T22:47:11.115Z,87.39
2023-01-20T22:50:13.363Z,86.46
2023-01-20T22:53:15.400Z,85.48
2023-01-20T22:56:20.774Z,85.01
2023-01-20T22:59:25.305Z,85.56
2023-01-20T23:02:27.514Z,85.22
2023-01-20T23:05:31.320Z,85.19
2023-01-20T23:08:34.033Z,84.61
2023-01-20T23:11:38.534Z,85.46
2023-01-20T23:14:58.946Z,85.33
2023-01-20T23:18:02.987Z,85.48
2023-01-20T23:21:08.135Z,85.78
2023-01-20T23:24:10.571Z,86.29
2023-01-20T23:27:12.829Z,86.34
2023-01-20T23:30:15.307Z,86.80
2023-01-20T23:33:19.678Z,87.10
2023-01-20T23:36:24.468Z,86.31
2023-01-20T23:39:26.590Z,85.45
2023-01-20T23:42:28.541Z,84.56
2023-01-20T23:45:30.690Z,84.31
2023-01-20T23:48:33.834Z,83.86
2023-01-20T23:51:37.288Z,83.70
2023-01-20T23:54:41.640Z,83.73
2023-01-20T23:57:43.787Z,84.26
